Detalii statie INDEPENDENTA [00001985]

Toti senzorii

Date Temperatura solului [C]Precipitatii [mm]Voltaj baterie [mV]Leaf Wetness [Min]HC Air temperature [C]HC Relative humidity [%]Punctul de roua [C]
medieminmaxsumaultimatimpmedieminmaxmediemediemin
2019-02-21 00:00:00 0 6864 7.25 7.15 7.42 100 7.2 7.1
2019-02-21 01:00:00 0 6834 6.87 6.47 7.34 100 6.8 6.4
2019-02-21 02:00:00 0 6834 6.07 5.94 6.4 100 6 5.9
2019-02-21 03:00:00 0 6844 6 5.84 6.15 100 5.9 5.8
2019-02-21 04:00:00 0 6844 5.78 5.59 5.96 100 5.7 5.5
2019-02-21 05:00:00 0 6834 5.56 5.23 5.78 100 5.5 5.2
2019-02-21 06:00:00 0 6816 4.95 4.35 5.42 100 4.9 4.3
2019-02-21 07:00:00 0 6796 3.74 3.02 4.32 83.33 3 0
2019-02-21 08:00:00 0 6854 2.68 2.3 3.44 83.33 2.1 0
2019-02-21 09:00:00 0 7060 4.97 3.22 6.99 41.66 0
2019-02-21 10:00:00 0 7158 8.3 7.14 9.37 100 8.2 7.1
2019-02-21 11:00:00 0 7196 9.67 9 10.25 22.5 0
2019-02-21 12:00:00 0 7274 10.72 9.98 11.65 0 0 0
2019-02-21 13:00:00 0 7274 12.02 11.12 13.02 0 0 0
2019-02-21 14:00:00 0 7264 12.16 11.37 13.02 0 0 0
2019-02-21 15:00:00 0 7274 12.34 12.18 12.53 0 0 0
2019-02-21 16:00:00 0 7254 11.95 11.37 12.43 0 0 0
2019-02-21 17:00:00 0 7030 11.4 10.91 12.25 0 0 0
2019-02-21 18:00:00 0 6904 10.34 9.81 10.84 41.66 0
2019-02-21 19:00:00 0 6874 9.24 8.24 9.72 25 0
2019-02-21 20:00:00 0 6854 8.46 8.2 8.61 100 8.4 8.2
2019-02-21 21:00:00 0 6864 7.53 6.53 8.44 100 7.4 6.5
2019-02-21 22:00:00 0 6844 5.73 4.53 6.38 89.24 0
2019-02-21 23:00:00 0 6826 3.53 2.38 4.38 100 3.4 2.3
2019-02-22 00:00:00 0 6826 3.1 1.77 4.71 91.66 0
2019-02-22 01:00:00 0 6826 1.43 0.79 2.15 100 1.3 0.7
2019-02-22 02:00:00 0 6826 2.39 1.49 3.59 100 2.3 1.4
2019-02-22 03:00:00 0 6826 3.03 1.97 3.44 100 2.9 1.9
2019-02-22 04:00:00 0 6806 3.22 2.74 3.53 100 3.1 2.7
2019-02-22 05:00:00 0 6826 2.56 2.41 2.88 100 2.5 2.4
2019-02-22 06:00:00 0 6806 2.65 2.33 3.07 100 2.6 2.3
2019-02-22 07:00:00 0 6816 2.13 1.95 2.3 100 2.1 1.9
2019-02-22 08:00:00 0 6844 2 1.67 2.51 100 1.9 1.6
2019-02-22 09:00:00 0 7070 3.26 2.58 4.29 100 3.2 2.5
2019-02-22 10:00:00 0 7246 4.67 4.3 5.37 100 4.6 4.3
2019-02-22 11:00:00 0 7254 6.52 5.68 7.22 100 6.4 5.6
2019-02-22 12:00:00 0 7246 7.88 7.35 8.3 99.07 7.6 7
2019-02-22 13:00:00 0 7246 8.08 7.84 8.36 99.84 8 7.8
2019-02-22 14:00:00 0 7138 7.97 7.66 8.42 100 7.9 7.6
2019-02-22 15:00:00 0 7236 7.18 6.17 7.98 100 7.1 6.1
2019-02-22 16:00:00 0.6 7030 5.78 5.33 6.12 100 5.7 5.3
2019-02-22 17:00:00 0.6 6914 2.48 0.97 5.29 100 2.4 0.9
2019-02-22 18:00:00 0 6864 0.14 -0.15 0.78 100 0.1 0
2019-02-22 19:00:00 0 6834 -0.59 -0.95 -0.11 72.09 0